Redcliffe, Australia
Current Conditions -  °F | °C
As of 6:30 PM on Thursday 18 Dec 2014 (Local Time) from YBBN Reporting Station
Thunderstorm Thunderstorm  
Wind Chill: 72°   Ceiling: 16000
Heat Index: 72°   Visibility: 3mi
Dew Point: 70°   Wind: 17mph
Humidity: 94%   Direction: 210°SSW
Pressure: 29.8"   Gusts: NA
Location:  27.23°S, 153.12°E
Report Text: YBBN 180830Z 21015KT 5000 -TSRA FEW012 SCT038CB BKN160 22/21 Q1009 RETS RESHRA
Loading
Personal Weather Stations






























Interactive Weather Map New forecast layout! Learn more

10-Day Weather Forecast

Advertisements
Track Severe Weather on mobile